Thursday, June 29, 2017, 10:19 AM EDT
Back to Local

KMPO, Mt Pocono Pocono Mountains

Location: Pocono Summit, PA, United States Lat: 41.133
Local Time: 10:19 AM EDT (14:19 GMT) Lon: -75.383
Time Zone: US/Eastern Elev: 1915 ft

Show me the last for .
Show Decoded

2017-06-29 09:53 METAR KMPO 291353Z AUTO 23009KT 10SM CLR 20/13 A3015 RMK AO2 SLP204 T02000133 =
2017-06-29 08:53 METAR KMPO 291253Z AUTO 24007KT 10SM CLR 18/12 A3016 RMK AO2 SLP206 T01830122 =
2017-06-29 07:53 METAR KMPO 291153Z AUTO 21006KT 10SM CLR 17/12 A3017 RMK AO2 SLP209 T01670122
                 10167 20144 58001 =
2017-06-29 06:53 METAR KMPO 291053Z AUTO 23004KT 10SM CLR 16/12 A3017 RMK AO2 SLP209 T01610117 =
2017-06-29 05:53 METAR KMPO 290953Z AUTO 23008KT 10SM CLR 16/11 A3017 RMK AO2 SLP209 T01610111 =
2017-06-29 04:53 METAR KMPO 290853Z AUTO 25005KT 10SM CLR 17/11 A3017 RMK AO2 SLP208 T01670111
                 51002 =
2017-06-29 03:53 METAR KMPO 290753Z AUTO 23005KT 10SM CLR 16/11 A3017 RMK AO2 SLP209 T01560106 =
2017-06-29 02:53 METAR KMPO 290653Z AUTO 32004KT 10SM CLR 15/09 A3017 RMK AO2 SLP210 T01500094 =
2017-06-29 01:53 METAR KMPO 290553Z AUTO 25008KT 10SM CLR 16/09 A3016 RMK AO2 SLP207 T01560094
                 10189 20144 53002 =
2017-06-29 00:53 METAR KMPO 290453Z AUTO 26005KT 10SM CLR 15/09 A3016 RMK AO2 SLP208 T01500094
                 402110072 =
2017-06-28 23:53 METAR KMPO 290353Z AUTO 23007KT 10SM CLR 16/09 A3015 RMK AO2 SLP204 T01610089 =
2017-06-28 22:53 METAR KMPO 290253Z AUTO 26004KT 10SM CLR 16/10 A3015 RMK AO2 SLP206 T01610100
                 53006 =
2017-06-28 21:53 METAR KMPO 290153Z AUTO 00000KT 10SM CLR 17/11 A3015 RMK AO2 SLP204 T01670106 =
2017-06-28 20:53 METAR KMPO 290053Z AUTO 24005KT 10SM CLR 17/10 A3013 RMK AO2 SLP201 T01720100 =
2017-06-28 19:53 METAR KMPO 282353Z AUTO 26004KT 10SM FEW060 19/10 A3014 RMK AO2 SLP202 T01890100
                 10211 20189 56004 =
2017-06-28 18:53 METAR KMPO 282253Z AUTO 27007KT 10SM FEW055 21/09 A3014 RMK AO2 SLP202 T02060094
                 =
2017-06-28 17:53 METAR KMPO 282153Z AUTO 28008KT 10SM CLR 21/09 A3013 RMK AO2 SLP202 T02060094 =
2017-06-28 16:53 METAR KMPO 282053Z AUTO 28012KT 10SM FEW060 21/09 A3015 RMK AO2 SLP207 T02060094
                 56007 =
2017-06-28 15:53 METAR KMPO 281953Z AUTO 27007G15KT 10SM SCT055 21/09 A3015 RMK AO2 SLP208
                 T02060089 =
2017-06-28 14:53 METAR KMPO 281853Z AUTO 32009KT 10SM SCT050 21/09 A3016 RMK AO2 SLP211 T02060094
                 =
2017-06-28 13:53 METAR KMPO 281753Z AUTO 30010G18KT 10SM FEW047 BKN060 BKN080 19/08 A3017 RMK AO2
                 SLP215 T01890083 10200 20117 50005 =
2017-06-28 12:53 METAR KMPO 281653Z AUTO 28015G20KT 10SM BKN050 BKN060 18/08 A3019 RMK AO2 SLP221
                 T01780083 =
2017-06-28 11:53 METAR KMPO 281553Z AUTO 28013KT 10SM BKN050 18/08 A3017 RMK AO2 SLP214 T01830083
                 =
2017-06-28 10:53 METAR KMPO 281453Z AUTO 31011G19KT 10SM SCT048 18/08 A3015 RMK AO2 SLP209
                 T01780078 51005 =

Support USWX by starting your Amazon purchase here.